Superfun — ZCCL5 — position and weather

sailwx.info

Track history (hours):
 
Tides and Currents Weather Stations Pressure Air Temp Water Temp Dewpoint Dewpoint Depression Visibility Wind Speed Wind Dir Waves Ship Positions

Superfun

Last reported at 2014-Aug-21 11:17 UTC. Time now 2014-Aug-21 12:14 UTC.
Position N 43°32' E 007°03'.

Length 40 m.

Type: Other ship. MMSI: 319163000.

Date/timePositionNaut miles runAvg speedWind from/ knotsBaromVisibWave heightAir tempDewpointWater temp
2014-Aug-21 11:17N 43°32' E 007°03'0 0.0
2014-Aug-21 10:17N 43°32' E 007°03'0 0.0
2014-Aug-21 08:17N 43°32' E 007°03'0 0.0
2014-Aug-21 07:29N 43°32' E 007°03'0 0.0
2014-Aug-21 06:29N 43°32' E 007°03'0 0.0
2014-Aug-21 05:29N 43°32' E 007°03'0 0.0
2014-Aug-21 04:29N 43°32' E 007°03'0 0.0
2014-Aug-21 03:29N 43°32' E 007°03'0 0.0
2014-Aug-21 02:29N 43°32' E 007°03'0 0.0
2014-Aug-21 01:23N 43°32' E 007°03'0 0.0
2014-Aug-21 00:05N 43°32' E 007°03'0 0.0
2014-Aug-20 23:23N 43°32' E 007°03'0 0.0
2014-Aug-20 22:17N 43°32' E 007°03'0 0.0
2014-Aug-20 21:23N 43°32' E 007°03'0 0.0
2014-Aug-20 17:29N 43°32' E 007°03'0 0.0
2014-Aug-20 16:23N 43°32' E 007°03'0 0.0
2014-Aug-20 15:23N 43°32' E 007°03'0 0.0
2014-Aug-20 14:13N 43°32' E 007°03'7 6.5
2014-Aug-20 13:09N 43°25' E 007°03'5 8.8
2014-Aug-20 12:33N 43°20' E 007°01'8 7.5
2014-Aug-20 11:33N 43°13' E 006°57'11 9.5
2014-Aug-20 10:24N 43°17' E 006°43'2 2.6
2014-Aug-20 09:31N 43°16' E 006°40'0 0.0
2014-Aug-20 08:31N 43°16' E 006°40'0 0.0
2014-Aug-20 07:31N 43°16' E 006°40'0 0.0
2014-Aug-20 06:31N 43°16' E 006°40'0 0.0
2014-Aug-20 05:28N 43°16' E 006°40'0 0.0
2014-Aug-20 04:31N 43°16' E 006°40'0 0.0
2014-Aug-20 03:28N 43°16' E 006°40'0 0.0
2014-Aug-20 02:28N 43°16' E 006°40'0 0.0
2014-Aug-20 01:31N 43°16' E 006°40'0 0.0
2014-Aug-20 00:31N 43°16' E 006°40'0 0.0
2014-Aug-19 23:31N 43°16' E 006°40'0 0.0
2014-Aug-19 22:31N 43°16' E 006°40'0 0.0
2014-Aug-19 21:31N 43°16' E 006°40'0 0.0
2014-Aug-19 20:28N 43°16' E 006°40'0 0.0
2014-Aug-19 19:31N 43°16' E 006°40'0 0.0
2014-Aug-19 18:28N 43°16' E 006°40'0 0.0
2014-Aug-19 17:25N 43°16' E 006°40'0 0.0
2014-Aug-19 15:31N 43°16' E 006°40'0 0.0
2014-Aug-19 13:31N 43°16' E 006°40'0 0.0
2014-Aug-19 12:07N 43°16' E 006°40'0 0.0
2014-Aug-19 11:31N 43°16' E 006°40'0 0.0
2014-Aug-19 10:28N 43°16' E 006°40'0 0.0
2014-Aug-19 09:31N 43°16' E 006°40'0 0.0
2014-Aug-19 08:28N 43°16' E 006°40'0 0.0
2014-Aug-19 07:31N 43°16' E 006°40'0 0.0
2014-Aug-19 06:31N 43°16' E 006°40'0 0.0
2014-Aug-19 05:31N 43°16' E 006°40'0 0.0
2014-Aug-19 04:31N 43°16' E 006°40'0 0.0
2014-Aug-19 02:28N 43°16' E 006°40'0 0.0
2014-Aug-19 01:31N 43°16' E 006°40'0 0.0
2014-Aug-19 00:31N 43°16' E 006°40'0 0.0
2014-Aug-18 23:25N 43°16' E 006°40'0 0.0
2014-Aug-18 22:22N 43°16' E 006°40'0 0.0
2014-Aug-18 21:25N 43°16' E 006°40'0 0.0
2014-Aug-18 20:25N 43°16' E 006°40'0 0.0
2014-Aug-18 19:25N 43°16' E 006°40'0 0.0
2014-Aug-18 18:16N 43°16' E 006°40'0 0.0
2014-Aug-18 17:28N 43°16' E 006°40'2 2.7
2014-Aug-18 16:33N 43°15' E 006°43'3 0.8
2014-Aug-18 13:11N 43°13' E 006°40'4 5.7
2014-Aug-18 12:28N 43°17' E 006°43'2 1.1
2014-Aug-18 10:27N 43°16' E 006°40'0 0.0
2014-Aug-18 09:30N 43°16' E 006°40'0 0.0
2014-Aug-18 08:33N 43°16' E 006°40'0 0.0
2014-Aug-18 07:33N 43°16' E 006°40'0 0.0
2014-Aug-18 06:33N 43°16' E 006°40'0 0.0
2014-Aug-18 05:33N 43°16' E 006°40'0 0.0
2014-Aug-18 04:33N 43°16' E 006°40'0 0.0
2014-Aug-18 03:30N 43°16' E 006°40'0 0.0
2014-Aug-18 02:33N 43°16' E 006°40'0 0.0
2014-Aug-18 01:30N 43°16' E 006°40'0 0.0
2014-Aug-18 00:27N 43°16' E 006°40'0 0.0
2014-Aug-17 18:30N 43°16' E 006°40'0 0.0
2014-Aug-17 17:30N 43°16' E 006°40'0 0.1
2014-Aug-17 15:22N 43°16' E 006°40'0 0.0
2014-Aug-17 14:25N 43°16' E 006°40'0 0.0
2014-Aug-17 12:25N 43°16' E 006°40'0 0.0
2014-Aug-17 11:31N 43°16' E 006°40'0 0.0
2014-Aug-17 10:28N 43°16' E 006°40'0 0.0
2014-Aug-17 09:31N 43°16' E 006°40'2 1.9
2014-Aug-17 08:32N 43°16' E 006°37'0 0.0
2014-Aug-17 07:32N 43°16' E 006°37'0 0.0
2014-Aug-17 06:32N 43°16' E 006°37'0 0.0
2014-Aug-17 05:32N 43°16' E 006°37'0 0.0
2014-Aug-17 04:32N 43°16' E 006°37'0 0.0
2014-Aug-17 03:32N 43°16' E 006°37'0 0.0
2014-Aug-17 02:23N 43°16' E 006°37'0 0.0
2014-Aug-17 01:26N 43°16' E 006°37'0 0.0
2014-Aug-17 00:17N 43°16' E 006°37'0 0.0
2014-Aug-16 23:27N 43°16' E 006°37'4 5.0
2014-Aug-16 22:33N 43°16' E 006°43'3 2.8
2014-Aug-16 21:33N 43°14' E 006°40'0 0.0
2014-Aug-16 20:33N 43°14' E 006°40'0 0.0
2014-Aug-16 19:33N 43°14' E 006°40'0 0.0
2014-Aug-16 17:12N 43°14' E 006°40'0 0.0
2014-Aug-16 13:20N 43°14' E 006°40'3 4.3
2014-Aug-16 12:33N 43°17' E 006°40'3 2.6
2014-Aug-16 11:32N 43°16' E 006°37'0 0.0
2014-Aug-16 10:32N 43°16' E 006°37'2 1.6
2014-Aug-16 09:33N 43°17' E 006°39'9 9.4
2014-Aug-16 08:33N 43°23' E 006°49'4 3.6
2014-Aug-16 07:32N 43°26' E 006°52'0 0.0
2014-Aug-16 06:32N 43°26' E 006°52'0 0.0
2014-Aug-16 05:32N 43°26' E 006°52'0 0.0
2014-Aug-16 04:32N 43°26' E 006°52'0 0.0
2014-Aug-16 03:32N 43°26' E 006°52'0 0.0
2014-Aug-16 02:32N 43°26' E 006°52'0 0.0
2014-Aug-16 01:32N 43°26' E 006°52'0 0.0
2014-Aug-16 00:32N 43°26' E 006°52'0 0.0
2014-Aug-15 23:29N 43°26' E 006°52'0 0.0
2014-Aug-15 22:32N 43°26' E 006°52'0 0.0
2014-Aug-15 21:29N 43°26' E 006°52'1 0.8
2014-Aug-15 20:33N 43°25' E 006°52'4 4.2
2014-Aug-15 19:33N 43°26' E 006°58'6 0.5
2014-Aug-15 09:04N 43°31' E 006°57'2 4.2
2014-Aug-15 08:33N 43°30' E 006°59'9 8.9
2014-Aug-15 07:33N 43°34' E 007°11'1010.0
2014-Aug-15 06:32N 43°40' E 007°21'4 0.2
2014-Aug-14 14:07N 43°43' E 007°25'1 0.3
2014-Aug-14 10:29N 43°43' E 007°23'0 0.0
2014-Aug-14 09:32N 43°43' E 007°23'1 0.1
2014-Aug-13 17:27N 43°42' E 007°23'3 0.1
2014-Aug-12 22:30N 43°44' E 007°26'0 0.0
2014-Aug-12 17:27N 43°44' E 007°26'1 0.3
2014-Aug-12 13:22N 43°43' E 007°25'14 0.6
2014-Aug-11 12:33N 43°34' E 007°11'10 9.1
2014-Aug-11 11:28N 43°28' E 006°60'  
Track history (hours):
 
Tides and Currents Weather Stations Pressure Air Temp Water Temp Dewpoint Dewpoint Depression Visibility Wind Speed Wind Dir Waves Ship Positions

Superfun

Last reported at 2014-Aug-21 11:17 UTC. Time now 2014-Aug-21 12:14 UTC.
Position N 43°32' E 007°03'.

Length 40 m.

Type: Other ship. MMSI: 319163000.

Date/timePositionNaut miles runAvg speedWind from/ knotsBaromVisibWave heightAir tempDewpointWater temp
2014-Aug-21 11:17N 43°32' E 007°03'0 0.0
2014-Aug-21 10:17N 43°32' E 007°03'0 0.0
2014-Aug-21 08:17N 43°32' E 007°03'0 0.0
2014-Aug-21 07:29N 43°32' E 007°03'0 0.0
2014-Aug-21 06:29N 43°32' E 007°03'0 0.0
2014-Aug-21 05:29N 43°32' E 007°03'0 0.0
2014-Aug-21 04:29N 43°32' E 007°03'0 0.0
2014-Aug-21 03:29N 43°32' E 007°03'0 0.0
2014-Aug-21 02:29N 43°32' E 007°03'0 0.0
2014-Aug-21 01:23N 43°32' E 007°03'0 0.0
2014-Aug-21 00:05N 43°32' E 007°03'0 0.0
2014-Aug-20 23:23N 43°32' E 007°03'0 0.0
2014-Aug-20 22:17N 43°32' E 007°03'0 0.0
2014-Aug-20 21:23N 43°32' E 007°03'0 0.0
2014-Aug-20 17:29N 43°32' E 007°03'0 0.0
2014-Aug-20 16:23N 43°32' E 007°03'0 0.0
2014-Aug-20 15:23N 43°32' E 007°03'0 0.0
2014-Aug-20 14:13N 43°32' E 007°03'7 6.5
2014-Aug-20 13:09N 43°25' E 007°03'5 8.8
2014-Aug-20 12:33N 43°20' E 007°01'8 7.5
2014-Aug-20 11:33N 43°13' E 006°57'11 9.5
2014-Aug-20 10:24N 43°17' E 006°43'2 2.6
2014-Aug-20 09:31N 43°16' E 006°40'0 0.0
2014-Aug-20 08:31N 43°16' E 006°40'0 0.0
2014-Aug-20 07:31N 43°16' E 006°40'0 0.0
2014-Aug-20 06:31N 43°16' E 006°40'0 0.0
2014-Aug-20 05:28N 43°16' E 006°40'0 0.0
2014-Aug-20 04:31N 43°16' E 006°40'0 0.0
2014-Aug-20 03:28N 43°16' E 006°40'0 0.0
2014-Aug-20 02:28N 43°16' E 006°40'0 0.0
2014-Aug-20 01:31N 43°16' E 006°40'0 0.0
2014-Aug-20 00:31N 43°16' E 006°40'0 0.0
2014-Aug-19 23:31N 43°16' E 006°40'0 0.0
2014-Aug-19 22:31N 43°16' E 006°40'0 0.0
2014-Aug-19 21:31N 43°16' E 006°40'0 0.0
2014-Aug-19 20:28N 43°16' E 006°40'0 0.0
2014-Aug-19 19:31N 43°16' E 006°40'0 0.0
2014-Aug-19 18:28N 43°16' E 006°40'0 0.0
2014-Aug-19 17:25N 43°16' E 006°40'0 0.0
2014-Aug-19 15:31N 43°16' E 006°40'0 0.0
2014-Aug-19 13:31N 43°16' E 006°40'0 0.0
2014-Aug-19 12:07N 43°16' E 006°40'0 0.0
2014-Aug-19 11:31N 43°16' E 006°40'0 0.0
2014-Aug-19 10:28N 43°16' E 006°40'0 0.0
2014-Aug-19 09:31N 43°16' E 006°40'0 0.0
2014-Aug-19 08:28N 43°16' E 006°40'0 0.0
2014-Aug-19 07:31N 43°16' E 006°40'0 0.0
2014-Aug-19 06:31N 43°16' E 006°40'0 0.0
2014-Aug-19 05:31N 43°16' E 006°40'0 0.0
2014-Aug-19 04:31N 43°16' E 006°40'0 0.0
2014-Aug-19 02:28N 43°16' E 006°40'0 0.0
2014-Aug-19 01:31N 43°16' E 006°40'0 0.0
2014-Aug-19 00:31N 43°16' E 006°40'0 0.0
2014-Aug-18 23:25N 43°16' E 006°40'0 0.0
2014-Aug-18 22:22N 43°16' E 006°40'0 0.0
2014-Aug-18 21:25N 43°16' E 006°40'0 0.0
2014-Aug-18 20:25N 43°16' E 006°40'0 0.0
2014-Aug-18 19:25N 43°16' E 006°40'0 0.0
2014-Aug-18 18:16N 43°16' E 006°40'0 0.0
2014-Aug-18 17:28N 43°16' E 006°40'2 2.7
2014-Aug-18 16:33N 43°15' E 006°43'3 0.8
2014-Aug-18 13:11N 43°13' E 006°40'4 5.7
2014-Aug-18 12:28N 43°17' E 006°43'2 1.1
2014-Aug-18 10:27N 43°16' E 006°40'0 0.0
2014-Aug-18 09:30N 43°16' E 006°40'0 0.0
2014-Aug-18 08:33N 43°16' E 006°40'0 0.0
2014-Aug-18 07:33N 43°16' E 006°40'0 0.0
2014-Aug-18 06:33N 43°16' E 006°40'0 0.0
2014-Aug-18 05:33N 43°16' E 006°40'0 0.0
2014-Aug-18 04:33N 43°16' E 006°40'0 0.0
2014-Aug-18 03:30N 43°16' E 006°40'0 0.0
2014-Aug-18 02:33N 43°16' E 006°40'0 0.0
2014-Aug-18 01:30N 43°16' E 006°40'0 0.0
2014-Aug-18 00:27N 43°16' E 006°40'0 0.0
2014-Aug-17 18:30N 43°16' E 006°40'0 0.0
2014-Aug-17 17:30N 43°16' E 006°40'0 0.1
2014-Aug-17 15:22N 43°16' E 006°40'0 0.0
2014-Aug-17 14:25N 43°16' E 006°40'0 0.0
2014-Aug-17 12:25N 43°16' E 006°40'0 0.0
2014-Aug-17 11:31N 43°16' E 006°40'0 0.0
2014-Aug-17 10:28N 43°16' E 006°40'0 0.0
2014-Aug-17 09:31N 43°16' E 006°40'2 1.9
2014-Aug-17 08:32N 43°16' E 006°37'0 0.0
2014-Aug-17 07:32N 43°16' E 006°37'0 0.0
2014-Aug-17 06:32N 43°16' E 006°37'0 0.0
2014-Aug-17 05:32N 43°16' E 006°37'0 0.0
2014-Aug-17 04:32N 43°16' E 006°37'0 0.0
2014-Aug-17 03:32N 43°16' E 006°37'0 0.0
2014-Aug-17 02:23N 43°16' E 006°37'0 0.0
2014-Aug-17 01:26N 43°16' E 006°37'0 0.0
2014-Aug-17 00:17N 43°16' E 006°37'0 0.0
2014-Aug-16 23:27N 43°16' E 006°37'4 5.0
2014-Aug-16 22:33N 43°16' E 006°43'3 2.8
2014-Aug-16 21:33N 43°14' E 006°40'0 0.0
2014-Aug-16 20:33N 43°14' E 006°40'0 0.0
2014-Aug-16 19:33N 43°14' E 006°40'0 0.0
2014-Aug-16 17:12N 43°14' E 006°40'0 0.0
2014-Aug-16 13:20N 43°14' E 006°40'3 4.3
2014-Aug-16 12:33N 43°17' E 006°40'3 2.6
2014-Aug-16 11:32N 43°16' E 006°37'0 0.0
2014-Aug-16 10:32N 43°16' E 006°37'2 1.6
2014-Aug-16 09:33N 43°17' E 006°39'9 9.4
2014-Aug-16 08:33N 43°23' E 006°49'4 3.6
2014-Aug-16 07:32N 43°26' E 006°52'0 0.0
2014-Aug-16 06:32N 43°26' E 006°52'0 0.0
2014-Aug-16 05:32N 43°26' E 006°52'0 0.0
2014-Aug-16 04:32N 43°26' E 006°52'0 0.0
2014-Aug-16 03:32N 43°26' E 006°52'0 0.0
2014-Aug-16 02:32N 43°26' E 006°52'0 0.0
2014-Aug-16 01:32N 43°26' E 006°52'0 0.0
2014-Aug-16 00:32N 43°26' E 006°52'0 0.0
2014-Aug-15 23:29N 43°26' E 006°52'0 0.0
2014-Aug-15 22:32N 43°26' E 006°52'0 0.0
2014-Aug-15 21:29N 43°26' E 006°52'1 0.8
2014-Aug-15 20:33N 43°25' E 006°52'4 4.2
2014-Aug-15 19:33N 43°26' E 006°58'6 0.5
2014-Aug-15 09:04N 43°31' E 006°57'2 4.2
2014-Aug-15 08:33N 43°30' E 006°59'9 8.9
2014-Aug-15 07:33N 43°34' E 007°11'1010.0
2014-Aug-15 06:32N 43°40' E 007°21'4 0.2
2014-Aug-14 14:07N 43°43' E 007°25'1 0.3
2014-Aug-14 10:29N 43°43' E 007°23'0 0.0
2014-Aug-14 09:32N 43°43' E 007°23'1 0.1
2014-Aug-13 17:27N 43°42' E 007°23'3 0.1
2014-Aug-12 22:30N 43°44' E 007°26'0 0.0
2014-Aug-12 17:27N 43°44' E 007°26'1 0.3
2014-Aug-12 13:22N 43°43' E 007°25'14 0.6
2014-Aug-11 12:33N 43°34' E 007°11'10 9.1
2014-Aug-11 11:28N 43°28' E 006°60'  

Dump ship's entire track history